createdAt,value
2022-11-05T00:00:55.173Z,6.07
2022-11-05T00:01:55.226Z,6.13
2022-11-05T00:02:55.250Z,6.13
2022-11-05T00:03:55.211Z,6.11
2022-11-05T00:04:55.106Z,6.09
2022-11-05T00:05:55.079Z,6.07
2022-11-05T00:06:55.094Z,6.00
2022-11-05T00:07:55.064Z,5.96
2022-11-05T00:08:55.185Z,5.95
2022-11-05T00:09:55.053Z,5.95
2022-11-05T00:10:55.025Z,5.91
2022-11-05T00:11:55.020Z,5.93
2022-11-05T00:12:55.002Z,5.95
2022-11-05T00:13:55.233Z,5.91
2022-11-05T00:14:55.027Z,5.89
2022-11-05T00:15:54.975Z,5.83
2022-11-05T00:16:54.947Z,5.74
2022-11-05T00:17:54.932Z,5.73
2022-11-05T00:18:54.958Z,5.71
2022-11-05T00:19:54.894Z,5.71
2022-11-05T00:20:55.028Z,5.70
2022-11-05T00:21:54.888Z,5.74
2022-11-05T00:22:54.878Z,5.77
2022-11-05T00:23:54.859Z,5.82
2022-11-05T00:24:54.838Z,5.85
2022-11-05T00:25:54.828Z,5.86
2022-11-05T00:26:54.850Z,5.89
2022-11-05T00:27:55.077Z,5.86
2022-11-05T00:28:54.820Z,5.85
2022-11-05T00:29:54.791Z,5.81
2022-11-05T00:30:54.782Z,5.78
2022-11-05T00:31:54.765Z,5.77
2022-11-05T00:32:54.767Z,5.71
2022-11-05T00:33:54.719Z,5.67
2022-11-05T00:34:54.732Z,5.63
2022-11-05T00:35:54.948Z,5.68
2022-11-05T00:36:54.713Z,5.67
2022-11-05T00:37:59.013Z,5.63
2022-11-05T00:38:54.679Z,5.56
2022-11-05T00:39:54.653Z,5.50
2022-11-05T00:40:54.631Z,5.45
2022-11-05T00:41:54.623Z,5.35
2022-11-05T00:42:54.653Z,5.27
2022-11-05T00:43:54.881Z,5.16
2022-11-05T00:44:54.624Z,5.07
2022-11-05T00:45:54.817Z,4.95
2022-11-05T00:46:59.642Z,4.89
2022-11-05T00:47:55.563Z,4.80
2022-11-05T00:48:54.525Z,4.76
2022-11-05T00:49:54.525Z,4.73
2022-11-05T00:50:54.571Z,4.72
2022-11-05T00:51:54.487Z,4.72
2022-11-05T00:52:54.496Z,4.73
2022-11-05T00:53:54.773Z,4.72
2022-11-05T00:54:54.453Z,4.69
2022-11-05T00:55:54.715Z,4.65
2022-11-05T00:56:54.472Z,4.62
2022-11-05T00:57:54.404Z,4.69
2022-11-05T00:58:54.408Z,4.80
2022-11-05T00:59:54.391Z,4.89
2022-11-05T01:00:54.388Z,4.89
2022-11-05T01:01:54.538Z,4.86
2022-11-05T01:02:54.631Z,4.88
2022-11-05T01:03:54.341Z,4.84
2022-11-05T01:04:54.338Z,4.80
2022-11-05T01:05:54.318Z,4.76
2022-11-05T01:06:54.287Z,4.75
2022-11-05T01:07:54.290Z,4.84
2022-11-05T01:08:54.388Z,4.98
2022-11-05T01:09:54.255Z,5.05
2022-11-05T01:10:54.259Z,5.13
2022-11-05T01:11:54.225Z,5.14
2022-11-05T01:12:54.233Z,5.14
2022-11-05T01:13:54.503Z,5.14
2022-11-05T01:14:54.213Z,5.10
2022-11-05T01:15:54.186Z,5.07
2022-11-05T01:16:54.167Z,5.02
2022-11-05T01:17:54.158Z,5.01
2022-11-05T01:18:54.153Z,5.01
2022-11-05T01:19:54.140Z,5.01
2022-11-05T01:20:54.139Z,4.99
2022-11-05T01:21:54.100Z,4.96
2022-11-05T01:22:54.102Z,4.96
2022-11-05T01:23:54.078Z,4.95
2022-11-05T01:24:54.073Z,4.94
2022-11-05T01:25:54.324Z,4.95
2022-11-05T01:26:54.060Z,4.95
2022-11-05T01:27:54.024Z,4.94
2022-11-05T01:28:54.086Z,4.92
2022-11-05T01:29:53.981Z,4.86
2022-11-05T01:30:53.994Z,4.83
2022-11-05T01:31:53.965Z,4.94
2022-11-05T01:32:54.002Z,4.96
2022-11-05T01:33:53.976Z,4.96
2022-11-05T01:34:53.931Z,4.91
2022-11-05T01:35:53.923Z,4.83
2022-11-05T01:36:53.906Z,4.75
2022-11-05T01:37:53.906Z,4.70
2022-11-05T01:38:53.992Z,4.59
2022-11-05T01:39:53.873Z,4.51
2022-11-05T01:40:53.843Z,4.44
2022-11-05T01:41:53.835Z,4.36
2022-11-05T01:42:53.835Z,4.28
2022-11-05T01:43:53.833Z,4.24
2022-11-05T01:44:53.927Z,4.15
2022-11-05T01:45:53.797Z,4.10
2022-11-05T01:46:53.779Z,4.06
2022-11-05T01:47:53.780Z,4.07
2022-11-05T01:48:57.262Z,4.07
2022-11-05T01:49:54.765Z,4.10
2022-11-05T01:50:53.729Z,4.07
2022-11-05T01:51:53.719Z,4.04
2022-11-05T01:52:53.701Z,4.03
2022-11-05T01:53:53.690Z,3.98
2022-11-05T01:54:53.680Z,3.97
2022-11-05T01:55:53.775Z,3.92
2022-11-05T01:56:54.369Z,3.92
2022-11-05T01:57:53.650Z,3.94
2022-11-05T01:58:53.609Z,3.92
2022-11-05T01:59:53.619Z,3.88
2022-11-05T02:00:53.848Z,3.85
2022-11-05T02:01:53.798Z,3.80
2022-11-05T02:02:53.758Z,3.78
2022-11-05T02:03:53.552Z,3.75
2022-11-05T02:04:53.543Z,3.76
2022-11-05T02:05:53.543Z,3.72
2022-11-05T02:06:53.763Z,3.70
2022-11-05T02:07:53.530Z,3.67
2022-11-05T02:08:53.494Z,3.65
2022-11-05T02:09:53.501Z,3.61
2022-11-05T02:10:53.467Z,3.61
2022-11-05T02:11:53.454Z,3.61
2022-11-05T02:12:53.454Z,3.60
2022-11-05T02:13:53.549Z,3.64
2022-11-05T02:14:53.425Z,3.65
2022-11-05T02:15:53.396Z,3.65
2022-11-05T02:16:53.401Z,3.68
2022-11-05T02:17:53.400Z,3.96
2022-11-05T02:18:53.352Z,4.24
2022-11-05T02:19:53.481Z,4.44
2022-11-05T02:20:53.324Z,4.59
2022-11-05T02:21:53.322Z,4.64
2022-11-05T02:22:53.316Z,4.61
2022-11-05T02:23:53.306Z,4.58
2022-11-05T02:24:53.543Z,4.52
2022-11-05T02:25:53.304Z,4.44
2022-11-05T02:26:53.264Z,4.40
2022-11-05T02:27:53.244Z,4.32
2022-11-05T02:28:53.242Z,4.22
2022-11-05T02:29:53.234Z,4.10
2022-11-05T02:30:53.186Z,3.98
2022-11-05T02:31:53.252Z,3.90
2022-11-05T02:32:53.424Z,3.79
2022-11-05T02:33:53.165Z,3.70
2022-11-05T02:34:53.161Z,3.61
2022-11-05T02:35:53.135Z,3.57
2022-11-05T02:36:53.406Z,3.53
2022-11-05T02:37:53.156Z,3.57
2022-11-05T02:38:53.088Z,3.60
2022-11-05T02:39:53.090Z,3.60
2022-11-05T02:40:53.069Z,3.58
2022-11-05T02:41:53.057Z,3.57
2022-11-05T02:42:53.060Z,3.57
2022-11-05T02:43:53.075Z,3.57
2022-11-05T02:44:53.024Z,3.60
2022-11-05T02:45:53.022Z,3.64
2022-11-05T02:46:52.988Z,3.64
2022-11-05T02:47:52.993Z,3.60
2022-11-05T02:48:52.958Z,3.64
2022-11-05T02:49:53.070Z,3.71
2022-11-05T02:50:53.232Z,3.70
2022-11-05T02:51:52.935Z,3.76
2022-11-05T02:52:53.171Z,3.83
2022-11-05T02:53:52.920Z,3.88
2022-11-05T02:54:53.170Z,3.86
2022-11-05T02:55:52.912Z,3.86
2022-11-05T02:56:52.876Z,3.96
2022-11-05T02:57:52.872Z,4.03
2022-11-05T02:58:52.837Z,4.16
2022-11-05T02:59:52.845Z,4.22
2022-11-05T03:00:52.810Z,4.22
2022-11-05T03:01:53.013Z,4.19
2022-11-05T03:02:52.906Z,4.21
2022-11-05T03:03:52.780Z,4.24
2022-11-05T03:04:52.777Z,4.34
2022-11-05T03:05:52.766Z,4.39
2022-11-05T03:06:52.739Z,4.40
2022-11-05T03:07:52.866Z,4.37
2022-11-05T03:08:52.703Z,4.32
2022-11-05T03:09:52.727Z,4.29
2022-11-05T03:10:52.698Z,4.25
2022-11-05T03:11:52.685Z,4.21
2022-11-05T03:12:52.877Z,4.15
2022-11-05T03:13:52.766Z,4.06
2022-11-05T03:14:52.652Z,3.97
2022-11-05T03:15:52.620Z,3.83
2022-11-05T03:16:52.648Z,3.75
2022-11-05T03:17:52.599Z,3.61
2022-11-05T03:18:52.579Z,3.52
2022-11-05T03:19:52.609Z,3.43
2022-11-05T03:20:52.806Z,3.39
2022-11-05T03:21:52.562Z,3.42
2022-11-05T03:22:52.810Z,3.43
2022-11-05T03:23:52.508Z,3.43
2022-11-05T03:24:52.518Z,3.40
2022-11-05T03:25:52.630Z,3.44
2022-11-05T03:26:52.730Z,3.52
2022-11-05T03:27:52.473Z,3.60
2022-11-05T03:28:52.459Z,3.65
2022-11-05T03:29:52.452Z,3.68
2022-11-05T03:30:52.647Z,3.67
2022-11-05T03:31:52.543Z,3.62
2022-11-05T03:32:52.691Z,3.57
2022-11-05T03:33:52.397Z,3.49
2022-11-05T03:34:52.392Z,3.43
2022-11-05T03:35:52.366Z,3.44
2022-11-05T03:36:52.351Z,3.50
2022-11-05T03:37:52.501Z,3.57
2022-11-05T03:38:52.308Z,3.62
2022-11-05T03:39:52.313Z,3.70
2022-11-05T03:40:52.295Z,3.71
2022-11-05T03:41:52.279Z,3.72
2022-11-05T03:42:53.086Z,3.70
2022-11-05T03:43:52.313Z,3.61
2022-11-05T03:44:52.258Z,3.54
2022-11-05T03:45:52.241Z,3.47
2022-11-05T03:46:52.219Z,3.36
2022-11-05T03:47:52.222Z,3.30
2022-11-05T03:48:52.251Z,3.21
2022-11-05T03:49:52.294Z,3.12
2022-11-05T03:50:52.174Z,3.03
2022-11-05T03:51:52.152Z,2.98
2022-11-05T03:52:52.936Z,2.92
2022-11-05T03:53:52.135Z,2.87
2022-11-05T03:54:52.104Z,2.82
2022-11-05T03:55:52.241Z,2.81
2022-11-05T03:56:52.305Z,2.77
2022-11-05T03:57:52.073Z,2.79
2022-11-05T03:58:57.554Z,2.81
2022-11-05T03:59:53.057Z,2.89
2022-11-05T04:00:52.024Z,2.91
2022-11-05T04:01:52.429Z,2.98
2022-11-05T04:02:52.087Z,3.07
2022-11-05T04:03:51.993Z,3.10
2022-11-05T04:04:51.987Z,3.09
2022-11-05T04:05:51.982Z,3.09
2022-11-05T04:06:51.982Z,3.07
2022-11-05T04:07:52.077Z,3.07
2022-11-05T04:08:51.924Z,3.10
2022-11-05T04:09:51.916Z,3.15
2022-11-05T04:10:56.229Z,3.20
2022-11-05T04:11:51.885Z,3.20
2022-11-05T04:12:51.900Z,3.23
2022-11-05T04:13:51.892Z,3.28
2022-11-05T04:14:51.846Z,3.30
2022-11-05T04:15:51.846Z,3.28
2022-11-05T04:16:51.828Z,3.28
2022-11-05T04:17:51.819Z,3.30
2022-11-05T04:18:52.057Z,3.36
2022-11-05T04:19:51.856Z,3.39
2022-11-05T04:20:51.771Z,3.34
2022-11-05T04:21:51.749Z,3.33
2022-11-05T04:22:52.032Z,3.27
2022-11-05T04:23:51.733Z,3.25
2022-11-05T04:24:51.722Z,3.25
2022-11-05T04:25:51.835Z,3.23
2022-11-05T04:26:55.711Z,3.21
2022-11-05T04:27:52.685Z,3.16
2022-11-05T04:28:52.400Z,3.15
2022-11-05T04:29:51.635Z,3.09
2022-11-05T04:30:51.623Z,3.05
2022-11-05T04:31:51.669Z,3.00
2022-11-05T04:32:51.852Z,2.98
2022-11-05T04:33:51.579Z,2.95
2022-11-05T04:34:51.586Z,2.92
2022-11-05T04:35:51.554Z,2.91
2022-11-05T04:36:51.553Z,2.92
2022-11-05T04:37:51.655Z,2.95
2022-11-05T04:38:51.517Z,2.98
2022-11-05T04:39:51.523Z,3.06
2022-11-05T04:40:51.481Z,3.15
2022-11-05T04:41:51.482Z,3.20
2022-11-05T04:42:51.486Z,3.23
2022-11-05T04:43:51.565Z,3.27
2022-11-05T04:44:51.462Z,3.33
2022-11-05T04:45:51.445Z,3.40
2022-11-05T04:46:51.409Z,3.42
2022-11-05T04:47:51.407Z,3.47
2022-11-05T04:48:51.615Z,3.47
2022-11-05T04:49:51.489Z,3.49
2022-11-05T04:50:51.605Z,3.50
2022-11-05T04:51:51.344Z,3.49
2022-11-05T04:52:51.344Z,3.47
2022-11-05T04:53:51.360Z,3.49
2022-11-05T04:54:51.318Z,3.50
2022-11-05T04:55:51.437Z,3.54
2022-11-05T04:56:51.266Z,3.58
2022-11-05T04:57:51.257Z,3.60
2022-11-05T04:58:51.258Z,3.64
2022-11-05T04:59:51.235Z,3.67
2022-11-05T05:00:51.297Z,3.75
2022-11-05T05:01:51.373Z,3.78
2022-11-05T05:02:51.191Z,3.85
2022-11-05T05:03:51.186Z,3.89
2022-11-05T05:04:51.174Z,3.92
2022-11-05T05:05:53.808Z,3.92
2022-11-05T05:06:51.138Z,3.97
2022-11-05T05:07:51.260Z,4.03
2022-11-05T05:08:51.110Z,4.06
2022-11-05T05:09:51.110Z,4.04
2022-11-05T05:10:51.093Z,4.01
2022-11-05T05:11:51.076Z,3.98
2022-11-05T05:12:51.070Z,4.00
2022-11-05T05:13:51.094Z,4.07
2022-11-05T05:14:51.028Z,4.12
2022-11-05T05:15:51.043Z,4.14
2022-11-05T05:16:51.007Z,4.14
2022-11-05T05:17:51.000Z,4.06
2022-11-05T05:18:50.993Z,4.00
2022-11-05T05:19:51.102Z,3.97
2022-11-05T05:20:50.951Z,3.96
2022-11-05T05:21:50.942Z,3.97
2022-11-05T05:22:50.958Z,3.94
2022-11-05T05:23:50.912Z,3.92
2022-11-05T05:24:52.973Z,3.89
2022-11-05T05:25:51.025Z,3.88
2022-11-05T05:26:50.873Z,3.89
2022-11-05T05:27:50.883Z,3.86
2022-11-05T05:28:51.103Z,3.88
2022-11-05T05:29:50.850Z,3.96
2022-11-05T05:30:54.773Z,4.01
2022-11-05T05:31:51.843Z,4.12
2022-11-05T05:32:50.808Z,4.16
2022-11-05T05:33:50.798Z,4.18
2022-11-05T05:34:50.776Z,4.16
2022-11-05T05:35:50.791Z,4.12
2022-11-05T05:36:50.995Z,4.06
2022-11-05T05:37:50.866Z,4.01
2022-11-05T05:38:50.705Z,4.00
2022-11-05T05:39:50.720Z,3.94
2022-11-05T05:40:50.685Z,3.90
2022-11-05T05:41:50.683Z,3.88
2022-11-05T05:42:50.677Z,3.86
2022-11-05T05:43:50.765Z,3.86
2022-11-05T05:44:50.656Z,3.85
2022-11-05T05:45:50.640Z,3.88
2022-11-05T05:46:50.606Z,3.86
2022-11-05T05:47:50.623Z,3.86
2022-11-05T05:48:50.577Z,3.82
2022-11-05T05:49:50.601Z,3.80
2022-11-05T05:50:50.805Z,3.86
2022-11-05T05:51:50.801Z,3.92
2022-11-05T05:52:50.550Z,3.96
2022-11-05T05:53:50.521Z,3.98
2022-11-05T05:54:50.508Z,4.00
2022-11-05T05:55:50.625Z,4.06
2022-11-05T05:56:50.488Z,4.15
2022-11-05T05:57:50.700Z,4.19
2022-11-05T05:58:50.473Z,4.19
2022-11-05T05:59:50.703Z,4.19
2022-11-05T06:00:50.442Z,4.15
2022-11-05T06:01:50.632Z,4.07
2022-11-05T06:02:50.448Z,4.01
2022-11-05T06:03:50.409Z,3.90
2022-11-05T06:04:50.372Z,3.88
2022-11-05T06:05:50.360Z,3.86
2022-11-05T06:06:50.363Z,3.86
2022-11-05T06:07:50.379Z,3.86
2022-11-05T06:08:50.324Z,3.89
2022-11-05T06:09:50.301Z,3.92
2022-11-05T06:10:50.390Z,3.94
2022-11-05T06:11:50.543Z,3.96
2022-11-05T06:12:50.286Z,4.04
2022-11-05T06:13:50.388Z,4.16
2022-11-05T06:14:50.244Z,4.24
2022-11-05T06:15:50.237Z,4.24
2022-11-05T06:16:50.219Z,4.32
2022-11-05T06:17:50.204Z,4.33
2022-11-05T06:18:50.216Z,4.33
2022-11-05T06:19:50.283Z,4.33
2022-11-05T06:20:50.190Z,4.29
2022-11-05T06:21:50.174Z,4.25
2022-11-05T06:22:50.162Z,4.22
2022-11-05T06:23:50.119Z,4.22
2022-11-05T06:24:50.127Z,4.22
2022-11-05T06:25:50.219Z,4.26
2022-11-05T06:26:50.084Z,4.26
2022-11-05T06:27:50.086Z,4.21
2022-11-05T06:28:50.070Z,4.15
2022-11-05T06:29:50.044Z,4.12
2022-11-05T06:30:50.058Z,4.06
2022-11-05T06:31:50.125Z,4.00
2022-11-05T06:32:50.032Z,3.97
2022-11-05T06:33:50.018Z,3.98
2022-11-05T06:34:49.995Z,4.00
2022-11-05T06:35:49.979Z,4.03
2022-11-05T06:36:49.955Z,3.98
2022-11-05T06:37:50.240Z,3.98
2022-11-05T06:38:49.970Z,4.03
2022-11-05T06:39:50.172Z,4.12
2022-11-05T06:40:49.926Z,4.21
2022-11-05T06:42:16.543Z,4.26
2022-11-05T06:42:50.923Z,4.29
2022-11-05T06:43:50.106Z,4.28
2022-11-05T06:44:49.859Z,4.26
2022-11-05T06:45:54.658Z,4.26
2022-11-05T06:46:49.845Z,4.26
2022-11-05T06:47:49.829Z,4.22
2022-11-05T06:48:49.925Z,4.16
2022-11-05T06:49:49.786Z,4.21
2022-11-05T06:50:49.792Z,4.25
2022-11-05T06:51:49.750Z,4.32
2022-11-05T06:52:49.753Z,4.40
2022-11-05T06:53:49.753Z,4.50
2022-11-05T06:54:49.840Z,4.55
2022-11-05T06:55:49.719Z,4.55
2022-11-05T06:56:49.689Z,4.64
2022-11-05T06:57:49.687Z,4.76
2022-11-05T06:58:49.684Z,4.88
2022-11-05T06:59:49.648Z,4.91
2022-11-05T07:00:49.727Z,4.88
2022-11-05T07:01:49.709Z,4.83
2022-11-05T07:02:49.612Z,4.77
2022-11-05T07:03:49.628Z,4.75
2022-11-05T07:04:49.594Z,4.72
2022-11-05T07:05:49.572Z,4.67
2022-11-05T07:06:49.687Z,4.69
2022-11-05T07:07:49.784Z,4.69
2022-11-05T07:08:49.555Z,4.75
2022-11-05T07:09:49.536Z,4.84
2022-11-05T07:10:49.512Z,4.80
2022-11-05T07:11:49.513Z,4.75
2022-11-05T07:12:49.526Z,4.73
2022-11-05T07:13:49.485Z,4.70
2022-11-05T07:14:49.455Z,4.69
2022-11-05T07:15:50.138Z,4.61
2022-11-05T07:16:49.447Z,4.62
2022-11-05T07:17:49.424Z,4.70
2022-11-05T07:18:49.449Z,4.75
2022-11-05T07:19:49.386Z,4.79
2022-11-05T07:20:49.402Z,4.83
2022-11-05T07:21:49.384Z,4.86
2022-11-05T07:22:49.359Z,4.91
2022-11-05T07:23:49.350Z,4.91
2022-11-05T07:24:49.437Z,4.94
2022-11-05T07:25:49.318Z,4.94
2022-11-05T07:26:49.322Z,4.95
2022-11-05T07:27:49.307Z,4.99
2022-11-05T07:28:49.285Z,5.01
2022-11-05T07:29:50.034Z,5.02
2022-11-05T07:30:49.402Z,5.04
2022-11-05T07:31:49.243Z,5.07
2022-11-05T07:32:49.250Z,5.10
2022-11-05T07:33:49.223Z,5.14
2022-11-05T07:34:49.204Z,5.19
2022-11-05T07:35:49.202Z,5.22
2022-11-05T07:36:49.319Z,5.28
2022-11-05T07:37:49.169Z,5.27
2022-11-05T07:38:49.163Z,5.28
2022-11-05T07:39:49.401Z,5.30
2022-11-05T07:40:49.139Z,5.32
2022-11-05T07:41:49.135Z,5.34
2022-11-05T07:42:49.213Z,5.38
2022-11-05T07:43:49.078Z,5.40
2022-11-05T07:44:49.089Z,5.45
2022-11-05T07:45:49.100Z,5.49
2022-11-05T07:46:49.064Z,5.55
2022-11-05T07:47:49.036Z,5.57
2022-11-05T07:48:49.057Z,5.60
2022-11-05T07:49:49.008Z,5.63
2022-11-05T07:50:49.126Z,5.67
2022-11-05T07:51:48.981Z,5.67
2022-11-05T07:52:48.989Z,5.71
2022-11-05T07:53:48.967Z,5.78
2022-11-05T07:54:49.045Z,5.83
2022-11-05T07:55:48.962Z,5.85
2022-11-05T07:56:48.915Z,5.93
2022-11-05T07:57:48.905Z,6.00
2022-11-05T07:58:48.930Z,6.04
2022-11-05T07:59:48.876Z,6.11
2022-11-05T08:00:49.106Z,6.18
2022-11-05T08:01:49.036Z,6.28
2022-11-05T08:02:49.013Z,6.40
2022-11-05T08:03:48.894Z,6.66
2022-11-05T08:04:48.809Z,6.87
2022-11-05T08:05:48.789Z,7.31
2022-11-05T08:06:48.824Z,7.58
2022-11-05T08:07:48.767Z,7.78
2022-11-05T08:08:49.062Z,8.17
2022-11-05T08:09:48.754Z,8.63
2022-11-05T08:10:48.731Z,9.02
2022-11-05T08:11:52.833Z,9.45
2022-11-05T08:12:48.826Z,9.52
2022-11-05T08:13:48.941Z,9.56
2022-11-05T08:14:48.693Z,9.09
2022-11-05T08:15:48.683Z,8.79
2022-11-05T08:16:48.659Z,8.90
2022-11-05T08:17:48.634Z,8.83
2022-11-05T08:18:48.754Z,8.90
2022-11-05T08:19:48.602Z,8.90
2022-11-05T08:20:48.606Z,8.72
2022-11-05T08:21:48.856Z,8.63
2022-11-05T08:22:48.572Z,8.39
2022-11-05T08:23:48.557Z,8.22
2022-11-05T08:24:48.663Z,8.28
2022-11-05T08:25:48.524Z,8.22
2022-11-05T08:26:48.537Z,8.37
2022-11-05T08:27:48.754Z,8.68
2022-11-05T08:28:48.507Z,9.12
2022-11-05T08:29:48.487Z,9.49
2022-11-05T08:30:48.587Z,9.78
2022-11-05T08:31:48.445Z,9.85
2022-11-05T08:32:48.447Z,9.96
2022-11-05T08:33:48.429Z,10.19
2022-11-05T08:34:48.412Z,10.52
2022-11-05T08:35:48.639Z,10.92
2022-11-05T08:36:48.497Z,11.20
2022-11-05T08:37:48.597Z,11.09
2022-11-05T08:38:48.370Z,10.95
2022-11-05T08:39:48.338Z,10.94
2022-11-05T08:40:48.340Z,10.62
2022-11-05T08:41:48.331Z,10.40
2022-11-05T08:42:48.418Z,10.55
2022-11-05T08:43:48.304Z,10.53
2022-11-05T08:44:48.276Z,10.25
2022-11-05T08:45:48.259Z,9.94
2022-11-05T08:46:48.261Z,9.75
2022-11-05T08:47:48.279Z,9.63
2022-11-05T08:48:48.252Z,9.82
2022-11-05T08:49:48.219Z,9.57
2022-11-05T08:50:48.217Z,9.32
2022-11-05T08:51:48.468Z,9.12
2022-11-05T08:52:48.190Z,8.99
2022-11-05T08:53:48.172Z,8.96
2022-11-05T08:54:48.290Z,9.04
2022-11-05T08:55:48.384Z,9.20
2022-11-05T08:56:48.122Z,8.97
2022-11-05T08:57:48.356Z,8.81
2022-11-05T08:58:48.113Z,8.88
2022-11-05T08:59:48.312Z,8.90
2022-11-05T09:00:48.269Z,8.66
2022-11-05T09:01:48.199Z,8.65
2022-11-05T09:02:48.033Z,8.99
2022-11-05T09:03:48.036Z,9.24
2022-11-05T09:04:48.011Z,9.09
2022-11-05T09:05:48.003Z,8.81
2022-11-05T09:06:48.124Z,8.58
2022-11-05T09:07:47.972Z,8.47
2022-11-05T09:08:47.985Z,8.44
2022-11-05T09:09:48.230Z,8.47
2022-11-05T09:10:47.954Z,8.55
2022-11-05T09:12:11.176Z,8.69
2022-11-05T09:12:48.935Z,8.79
2022-11-05T09:13:47.899Z,8.79
2022-11-05T09:14:47.903Z,8.78
2022-11-05T09:15:47.864Z,8.71
2022-11-05T09:16:47.867Z,8.63
2022-11-05T09:17:47.853Z,8.53
2022-11-05T09:18:47.864Z,8.50
2022-11-05T09:19:47.821Z,8.48
2022-11-05T09:20:47.814Z,8.51
2022-11-05T09:21:47.790Z,8.57
2022-11-05T09:22:47.774Z,8.75
2022-11-05T09:23:47.772Z,9.25
2022-11-05T09:24:47.789Z,9.91
2022-11-05T09:25:47.731Z,10.46
2022-11-05T09:26:47.741Z,11.09
2022-11-05T09:27:47.708Z,11.25
2022-11-05T09:28:47.721Z,11.39
2022-11-05T09:29:47.691Z,11.56
2022-11-05T09:30:47.802Z,11.71
2022-11-05T09:31:48.421Z,11.77
2022-11-05T09:32:47.641Z,12.05
2022-11-05T09:33:47.630Z,12.09
2022-11-05T09:34:47.629Z,11.99
2022-11-05T09:35:47.880Z,11.93
2022-11-05T09:36:47.622Z,11.82
2022-11-05T09:37:47.691Z,12.06
2022-11-05T09:38:47.575Z,12.31
2022-11-05T09:39:47.543Z,12.38
2022-11-05T09:40:47.545Z,12.27
2022-11-05T09:41:47.816Z,12.09
2022-11-05T09:42:47.640Z,12.06
2022-11-05T09:43:47.508Z,12.12
2022-11-05T09:44:47.482Z,12.16
2022-11-05T09:45:47.471Z,12.26
2022-11-05T09:46:47.468Z,12.42
2022-11-05T09:47:47.434Z,12.71
2022-11-05T09:48:47.566Z,12.46
2022-11-05T09:49:47.418Z,12.74
2022-11-05T09:50:47.395Z,12.75
2022-11-05T09:51:47.626Z,13.07
2022-11-05T09:52:47.387Z,13.12
2022-11-05T09:53:47.369Z,12.85
2022-11-05T09:54:47.466Z,12.95
2022-11-05T09:55:47.340Z,12.99
2022-11-05T09:56:47.317Z,12.89
2022-11-05T09:57:47.297Z,13.11
2022-11-05T09:58:47.311Z,13.14
2022-11-05T09:59:47.269Z,13.71
2022-11-05T10:00:47.348Z,14.72
2022-11-05T10:01:47.342Z,14.83
2022-11-05T10:02:47.237Z,14.27
2022-11-05T10:03:47.469Z,13.54
2022-11-05T10:04:47.220Z,13.80
2022-11-05T10:05:47.230Z,13.77
2022-11-05T10:06:47.322Z,13.56
2022-11-05T10:07:47.185Z,13.43
2022-11-05T10:08:47.151Z,13.91
2022-11-05T10:09:47.149Z,14.10
2022-11-05T10:10:47.157Z,14.81
2022-11-05T10:11:47.119Z,15.23
2022-11-05T10:12:47.260Z,16.11
2022-11-05T10:13:47.104Z,15.64
2022-11-05T10:14:47.070Z,15.63
2022-11-05T10:15:47.084Z,16.04
2022-11-05T10:16:51.039Z,15.46
2022-11-05T10:17:47.041Z,14.56
2022-11-05T10:18:47.297Z,13.87
2022-11-05T10:19:47.016Z,12.57
2022-11-05T10:20:47.016Z,11.99
2022-11-05T10:22:49.667Z,11.72
2022-11-05T10:23:46.962Z,12.09
2022-11-05T10:24:46.991Z,12.19
2022-11-05T10:25:46.948Z,12.34
2022-11-05T10:26:46.920Z,12.41
2022-11-05T10:27:46.992Z,12.20
2022-11-05T10:28:47.186Z,11.86
2022-11-05T10:29:47.059Z,11.54
2022-11-05T10:30:47.014Z,11.39
2022-11-05T10:31:46.863Z,11.31
2022-11-05T10:32:47.131Z,11.14
2022-11-05T10:33:46.851Z,11.01
2022-11-05T10:34:46.828Z,10.94
2022-11-05T10:35:46.821Z,10.91
2022-11-05T10:36:46.916Z,11.06
2022-11-05T10:37:46.783Z,11.16
2022-11-05T10:38:46.766Z,11.24
2022-11-05T10:39:46.764Z,11.14
2022-11-05T10:40:46.976Z,11.07
2022-11-05T10:41:46.730Z,10.96
2022-11-05T10:42:46.746Z,10.98
2022-11-05T10:43:46.691Z,10.91
2022-11-05T10:44:46.685Z,10.80
2022-11-05T10:45:46.678Z,10.77
2022-11-05T10:46:46.654Z,10.76
2022-11-05T10:47:46.653Z,10.77
2022-11-05T10:48:46.773Z,10.78
2022-11-05T10:49:46.612Z,10.83
2022-11-05T10:50:46.875Z,10.86
2022-11-05T10:51:46.586Z,10.89
2022-11-05T10:52:46.580Z,10.95
2022-11-05T10:53:46.577Z,10.95
2022-11-05T10:54:46.575Z,10.98
2022-11-05T10:55:46.547Z,10.92
2022-11-05T10:56:46.528Z,10.94
2022-11-05T10:57:46.531Z,10.89
2022-11-05T10:58:46.746Z,10.89
2022-11-05T10:59:46.501Z,10.92
2022-11-05T11:00:46.661Z,10.95
2022-11-05T11:01:46.574Z,10.96
2022-11-05T11:02:46.450Z,11.06
2022-11-05T11:03:46.437Z,11.10
2022-11-05T11:04:46.440Z,11.13
2022-11-05T11:05:46.419Z,11.14
2022-11-05T11:06:46.408Z,11.16
2022-11-05T11:07:46.389Z,11.14
2022-11-05T11:08:46.350Z,11.13
2022-11-05T11:09:46.352Z,11.11
2022-11-05T11:10:46.342Z,11.11
2022-11-05T11:11:46.319Z,11.10
2022-11-05T11:12:46.706Z,11.09
2022-11-05T11:13:46.314Z,11.09
2022-11-05T11:14:46.276Z,11.11
2022-11-05T11:15:46.284Z,11.16
2022-11-05T11:16:46.990Z,11.19
2022-11-05T11:17:46.252Z,11.21
2022-11-05T11:18:46.348Z,11.24
2022-11-05T11:19:46.212Z,11.21
2022-11-05T11:20:46.205Z,11.19
2022-11-05T11:21:46.202Z,11.24
2022-11-05T11:22:46.176Z,11.27
2022-11-05T11:23:46.177Z,11.27
2022-11-05T11:24:46.156Z,11.27
2022-11-05T11:25:46.135Z,11.28
2022-11-05T11:26:46.146Z,11.27
2022-11-05T11:27:46.127Z,11.25
2022-11-05T11:28:46.356Z,11.21
2022-11-05T11:29:49.314Z,11.21
2022-11-05T11:30:46.213Z,11.25
2022-11-05T11:31:46.074Z,11.35
2022-11-05T11:32:46.060Z,11.38
2022-11-05T11:33:46.058Z,11.43
2022-11-05T11:34:46.030Z,11.49
2022-11-05T11:35:46.020Z,11.50
2022-11-05T11:36:50.030Z,11.54
2022-11-05T11:37:45.997Z,11.57
2022-11-05T11:38:45.970Z,11.56
2022-11-05T11:39:45.949Z,11.54
2022-11-05T11:40:45.959Z,11.57
2022-11-05T11:41:45.957Z,11.61
2022-11-05T11:42:46.019Z,11.64
2022-11-05T11:43:45.911Z,11.64
2022-11-05T11:44:45.901Z,11.61
2022-11-05T11:45:45.892Z,11.62
2022-11-05T11:46:46.129Z,11.62
2022-11-05T11:47:45.915Z,11.57
2022-11-05T11:48:45.861Z,11.54
2022-11-05T11:49:45.821Z,11.52
2022-11-05T11:50:45.833Z,11.49
2022-11-05T11:51:50.014Z,11.52
2022-11-05T11:52:45.786Z,11.53
2022-11-05T11:53:45.785Z,11.53
2022-11-05T11:54:45.868Z,11.54
2022-11-05T11:55:45.772Z,11.54
2022-11-05T11:56:45.722Z,11.56
2022-11-05T11:57:45.724Z,11.59
2022-11-05T11:58:45.716Z,11.62
2022-11-05T12:00:07.853Z,11.70
2022-11-05T12:00:46.693Z,11.70
2022-11-05T12:01:45.696Z,11.65
2022-11-05T12:02:45.871Z,11.61
2022-11-05T12:03:45.637Z,11.62
2022-11-05T12:04:45.632Z,11.70
2022-11-05T12:05:45.621Z,11.72
2022-11-05T12:06:45.848Z,11.72
2022-11-05T12:07:45.592Z,11.72
2022-11-05T12:08:47.013Z,11.72
2022-11-05T12:09:45.556Z,11.71
2022-11-05T12:10:45.553Z,11.74
2022-11-05T12:11:45.848Z,11.74
2022-11-05T12:12:45.671Z,11.75
2022-11-05T12:13:45.513Z,11.75
2022-11-05T12:14:46.754Z,11.78
2022-11-05T12:15:45.496Z,11.89
2022-11-05T12:16:45.450Z,11.94
2022-11-05T12:17:45.449Z,12.01
2022-11-05T12:18:45.556Z,12.04
2022-11-05T12:19:45.425Z,12.04
2022-11-05T12:20:48.162Z,12.05
2022-11-05T12:21:52.922Z,12.06
2022-11-05T12:22:46.359Z,12.08
2022-11-05T12:23:45.374Z,12.06
2022-11-05T12:24:45.463Z,12.06
2022-11-05T12:25:45.342Z,12.11
2022-11-05T12:26:45.565Z,12.12
2022-11-05T12:27:45.313Z,12.12
2022-11-05T12:29:12.390Z,12.11
2022-11-05T12:29:46.317Z,12.08
2022-11-05T12:30:45.274Z,12.04
2022-11-05T12:31:45.254Z,11.99
2022-11-05T12:32:45.340Z,11.97
2022-11-05T12:33:45.474Z,11.96
2022-11-05T12:34:45.200Z,11.96
2022-11-05T12:35:48.868Z,11.97
2022-11-05T12:36:46.465Z,12.01
2022-11-05T12:37:45.164Z,11.99
2022-11-05T12:38:45.169Z,11.97
2022-11-05T12:39:45.136Z,11.96
2022-11-05T12:40:45.136Z,11.96
2022-11-05T12:41:45.128Z,11.97
2022-11-05T12:42:45.201Z,11.94
2022-11-05T12:43:45.110Z,11.94
2022-11-05T12:44:45.091Z,11.99
2022-11-05T12:45:45.069Z,12.04
2022-11-05T12:46:45.092Z,12.08
2022-11-05T12:47:45.098Z,12.11
2022-11-05T12:48:49.759Z,12.13
2022-11-05T12:49:45.001Z,12.13
2022-11-05T12:50:45.012Z,12.11
2022-11-05T12:51:45.408Z,12.02
2022-11-05T12:52:44.990Z,12.05
2022-11-05T12:53:44.957Z,12.11
2022-11-05T12:54:45.290Z,12.16
2022-11-05T12:55:48.562Z,12.20
2022-11-05T12:56:45.146Z,12.21
2022-11-05T12:57:44.909Z,12.27
2022-11-05T12:58:44.964Z,12.30
2022-11-05T12:59:44.873Z,12.31
2022-11-05T13:00:44.886Z,12.27
2022-11-05T13:01:44.930Z,12.23
2022-11-05T13:02:44.825Z,12.16
2022-11-05T13:03:44.825Z,12.15
2022-11-05T13:04:45.126Z,12.16
2022-11-05T13:05:44.798Z,12.16
2022-11-05T13:06:44.902Z,12.19
2022-11-05T13:07:44.788Z,12.11
2022-11-05T13:08:44.757Z,12.06
2022-11-05T13:09:44.753Z,12.05
2022-11-05T13:10:45.016Z,11.97
2022-11-05T13:11:44.716Z,11.97